sensor_id;sensor_type;location;lat;lon;timestamp;temperature;humidity
78696;SHT31;68030;51.980;5.646;2024-01-30T00:00:23;11.7;65.9
78696;SHT31;68030;51.980;5.646;2024-01-30T00:02:52;11.7;66.1
78696;SHT31;68030;51.980;5.646;2024-01-30T00:05:20;11.6;66.1
78696;SHT31;68030;51.980;5.646;2024-01-30T00:07:50;11.6;66.1
78696;SHT31;68030;51.980;5.646;2024-01-30T00:10:19;11.6;66.2
78696;SHT31;68030;51.980;5.646;2024-01-30T00:12:47;11.6;66.1
78696;SHT31;68030;51.980;5.646;2024-01-30T00:15:16;11.6;66.2
78696;SHT31;68030;51.980;5.646;2024-01-30T00:17:44;11.6;66.3
78696;SHT31;68030;51.980;5.646;2024-01-30T00:20:13;11.5;66.2
78696;SHT31;68030;51.980;5.646;2024-01-30T00:22:41;11.5;66.3
78696;SHT31;68030;51.980;5.646;2024-01-30T00:25:10;11.5;66.2
78696;SHT31;68030;51.980;5.646;2024-01-30T00:27:40;11.5;66.2
78696;SHT31;68030;51.980;5.646;2024-01-30T00:30:10;11.5;66.2
78696;SHT31;68030;51.980;5.646;2024-01-30T00:32:39;11.5;66.2
78696;SHT31;68030;51.980;5.646;2024-01-30T00:35:08;11.5;66.1
78696;SHT31;68030;51.980;5.646;2024-01-30T00:37:37;11.4;66.0
78696;SHT31;68030;51.980;5.646;2024-01-30T00:40:07;11.4;66.0
78696;SHT31;68030;51.980;5.646;2024-01-30T00:42:40;11.4;66.1
78696;SHT31;68030;51.980;5.646;2024-01-30T00:45:12;11.4;66.2
78696;SHT31;68030;51.980;5.646;2024-01-30T00:47:41;11.4;66.2
78696;SHT31;68030;51.980;5.646;2024-01-30T00:50:10;11.4;66.1
78696;SHT31;68030;51.980;5.646;2024-01-30T00:52:39;11.3;66.0
78696;SHT31;68030;51.980;5.646;2024-01-30T00:55:11;11.3;66.0
78696;SHT31;68030;51.980;5.646;2024-01-30T00:57:40;11.3;66.1
78696;SHT31;68030;51.980;5.646;2024-01-30T01:00:10;11.3;66.1
78696;SHT31;68030;51.980;5.646;2024-01-30T01:02:39;11.3;66.1
78696;SHT31;68030;51.980;5.646;2024-01-30T01:05:08;11.2;66.1
78696;SHT31;68030;51.980;5.646;2024-01-30T01:07:37;11.2;66.2
78696;SHT31;68030;51.980;5.646;2024-01-30T01:10:07;11.2;66.3
78696;SHT31;68030;51.980;5.646;2024-01-30T01:12:37;11.2;66.3
78696;SHT31;68030;51.980;5.646;2024-01-30T01:15:07;11.2;66.2
78696;SHT31;68030;51.980;5.646;2024-01-30T01:17:37;11.1;66.2
78696;SHT31;68030;51.980;5.646;2024-01-30T01:20:08;11.1;66.2
78696;SHT31;68030;51.980;5.646;2024-01-30T01:22:37;11.1;66.2
78696;SHT31;68030;51.980;5.646;2024-01-30T01:25:07;11.1;66.2
78696;SHT31;68030;51.980;5.646;2024-01-30T01:27:36;11.1;66.3
78696;SHT31;68030;51.980;5.646;2024-01-30T01:30:09;11.0;66.3
78696;SHT31;68030;51.980;5.646;2024-01-30T01:32:40;11.0;66.3
78696;SHT31;68030;51.980;5.646;2024-01-30T01:35:16;11.0;66.3
78696;SHT31;68030;51.980;5.646;2024-01-30T01:37:44;11.0;66.4
78696;SHT31;68030;51.980;5.646;2024-01-30T01:40:14;11.0;66.5
78696;SHT31;68030;51.980;5.646;2024-01-30T01:42:45;10.9;66.4
78696;SHT31;68030;51.980;5.646;2024-01-30T01:45:14;10.9;66.2
78696;SHT31;68030;51.980;5.646;2024-01-30T01:47:43;10.9;66.3
78696;SHT31;68030;51.980;5.646;2024-01-30T01:50:14;10.9;66.4
78696;SHT31;68030;51.980;5.646;2024-01-30T01:52:49;10.9;66.4
78696;SHT31;68030;51.980;5.646;2024-01-30T01:55:21;10.9;66.4
78696;SHT31;68030;51.980;5.646;2024-01-30T01:57:53;10.9;66.4
78696;SHT31;68030;51.980;5.646;2024-01-30T02:00:22;10.8;66.4
78696;SHT31;68030;51.980;5.646;2024-01-30T02:02:52;10.8;66.4
78696;SHT31;68030;51.980;5.646;2024-01-30T02:05:22;10.8;66.3
78696;SHT31;68030;51.980;5.646;2024-01-30T02:07:51;10.8;66.3
78696;SHT31;68030;51.980;5.646;2024-01-30T02:10:20;10.8;66.3
78696;SHT31;68030;51.980;5.646;2024-01-30T02:12:49;10.8;66.2
78696;SHT31;68030;51.980;5.646;2024-01-30T02:15:20;10.8;66.2
78696;SHT31;68030;51.980;5.646;2024-01-30T02:17:48;10.7;66.3
78696;SHT31;68030;51.980;5.646;2024-01-30T02:20:17;10.7;66.2
78696;SHT31;68030;51.980;5.646;2024-01-30T02:22:46;10.7;66.2
78696;SHT31;68030;51.980;5.646;2024-01-30T02:25:15;10.7;66.2
78696;SHT31;68030;51.980;5.646;2024-01-30T02:27:43;10.7;66.2
78696;SHT31;68030;51.980;5.646;2024-01-30T02:30:13;10.7;66.3
78696;SHT31;68030;51.980;5.646;2024-01-30T02:32:44;10.7;66.2
78696;SHT31;68030;51.980;5.646;2024-01-30T02:35:12;10.7;66.3
78696;SHT31;68030;51.980;5.646;2024-01-30T02:37:41;10.7;66.3
78696;SHT31;68030;51.980;5.646;2024-01-30T02:40:10;10.6;66.2
78696;SHT31;68030;51.980;5.646;2024-01-30T02:42:39;10.6;66.2
78696;SHT31;68030;51.980;5.646;2024-01-30T02:45:09;10.6;66.1
78696;SHT31;68030;51.980;5.646;2024-01-30T02:47:38;10.6;66.2
78696;SHT31;68030;51.980;5.646;2024-01-30T02:50:08;10.6;66.2
78696;SHT31;68030;51.980;5.646;2024-01-30T02:52:37;10.6;66.3
78696;SHT31;68030;51.980;5.646;2024-01-30T02:55:06;10.6;66.3
78696;SHT31;68030;51.980;5.646;2024-01-30T02:57:35;10.6;66.2
78696;SHT31;68030;51.980;5.646;2024-01-30T03:00:05;10.7;66.1
78696;SHT31;68030;51.980;5.646;2024-01-30T03:02:36;10.7;66.0
78696;SHT31;68030;51.980;5.646;2024-01-30T03:05:08;10.7;65.9
78696;SHT31;68030;51.980;5.646;2024-01-30T03:07:37;10.7;65.7
78696;SHT31;68030;51.980;5.646;2024-01-30T03:10:06;10.7;65.8
78696;SHT31;68030;51.980;5.646;2024-01-30T03:12:35;10.7;65.7
78696;SHT31;68030;51.980;5.646;2024-01-30T03:15:04;10.7;65.6
78696;SHT31;68030;51.980;5.646;2024-01-30T03:17:32;10.7;65.6
78696;SHT31;68030;51.980;5.646;2024-01-30T03:20:03;10.7;65.6
78696;SHT31;68030;51.980;5.646;2024-01-30T03:22:32;10.7;65.6
78696;SHT31;68030;51.980;5.646;2024-01-30T03:25:01;10.7;65.6
78696;SHT31;68030;51.980;5.646;2024-01-30T03:27:29;10.7;65.5
78696;SHT31;68030;51.980;5.646;2024-01-30T03:29:58;10.7;65.6
78696;SHT31;68030;51.980;5.646;2024-01-30T03:32:26;10.7;65.7
78696;SHT31;68030;51.980;5.646;2024-01-30T03:34:55;10.7;65.7
78696;SHT31;68030;51.980;5.646;2024-01-30T03:37:24;10.7;65.8
78696;SHT31;68030;51.980;5.646;2024-01-30T03:39:53;10.7;65.8
78696;SHT31;68030;51.980;5.646;2024-01-30T03:42:21;10.7;65.8
78696;SHT31;68030;51.980;5.646;2024-01-30T03:44:50;10.7;65.7
78696;SHT31;68030;51.980;5.646;2024-01-30T03:47:20;10.7;65.8
78696;SHT31;68030;51.980;5.646;2024-01-30T03:49:50;10.7;65.9
78696;SHT31;68030;51.980;5.646;2024-01-30T03:52:19;10.7;65.9
78696;SHT31;68030;51.980;5.646;2024-01-30T03:54:47;10.7;65.8
78696;SHT31;68030;51.980;5.646;2024-01-30T03:57:16;10.7;65.8
78696;SHT31;68030;51.980;5.646;2024-01-30T03:59:44;10.7;65.7
78696;SHT31;68030;51.980;5.646;2024-01-30T04:02:13;10.8;65.7
78696;SHT31;68030;51.980;5.646;2024-01-30T04:04:41;10.8;65.7
78696;SHT31;68030;51.980;5.646;2024-01-30T04:07:10;10.8;65.7
78696;SHT31;68030;51.980;5.646;2024-01-30T04:09:40;10.8;65.6
78696;SHT31;68030;51.980;5.646;2024-01-30T04:12:08;10.9;65.4
78696;SHT31;68030;51.980;5.646;2024-01-30T04:14:38;10.9;65.3
78696;SHT31;68030;51.980;5.646;2024-01-30T04:17:06;10.9;65.3
78696;SHT31;68030;51.980;5.646;2024-01-30T04:19:37;10.9;65.3
78696;SHT31;68030;51.980;5.646;2024-01-30T04:22:05;10.9;65.1
78696;SHT31;68030;51.980;5.646;2024-01-30T04:24:34;10.9;65.1
78696;SHT31;68030;51.980;5.646;2024-01-30T04:27:03;10.9;65.1
78696;SHT31;68030;51.980;5.646;2024-01-30T04:29:31;11.0;64.9
78696;SHT31;68030;51.980;5.646;2024-01-30T04:32:01;11.0;64.9
78696;SHT31;68030;51.980;5.646;2024-01-30T04:34:30;11.0;64.9
78696;SHT31;68030;51.980;5.646;2024-01-30T04:36:58;11.0;64.9
78696;SHT31;68030;51.980;5.646;2024-01-30T04:39:27;11.0;64.9
78696;SHT31;68030;51.980;5.646;2024-01-30T04:41:55;11.0;64.9
78696;SHT31;68030;51.980;5.646;2024-01-30T04:44:24;11.0;64.8
78696;SHT31;68030;51.980;5.646;2024-01-30T04:46:52;11.0;64.9
78696;SHT31;68030;51.980;5.646;2024-01-30T04:49:25;11.0;65.0
78696;SHT31;68030;51.980;5.646;2024-01-30T04:51:53;11.0;65.0
78696;SHT31;68030;51.980;5.646;2024-01-30T04:54:22;11.0;65.0
78696;SHT31;68030;51.980;5.646;2024-01-30T04:56:50;11.0;65.1
78696;SHT31;68030;51.980;5.646;2024-01-30T04:59:19;11.0;65.1
78696;SHT31;68030;51.980;5.646;2024-01-30T05:01:48;11.0;65.2
78696;SHT31;68030;51.980;5.646;2024-01-30T05:04:16;11.0;65.2
78696;SHT31;68030;51.980;5.646;2024-01-30T05:06:45;11.1;65.3
78696;SHT31;68030;51.980;5.646;2024-01-30T05:09:13;11.1;65.2
78696;SHT31;68030;51.980;5.646;2024-01-30T05:11:44;11.1;65.2
78696;SHT31;68030;51.980;5.646;2024-01-30T05:14:13;11.1;65.1
78696;SHT31;68030;51.980;5.646;2024-01-30T05:16:41;11.2;65.0
78696;SHT31;68030;51.980;5.646;2024-01-30T05:19:13;11.2;64.9
78696;SHT31;68030;51.980;5.646;2024-01-30T05:21:42;11.2;64.8
78696;SHT31;68030;51.980;5.646;2024-01-30T05:24:10;11.2;64.8
78696;SHT31;68030;51.980;5.646;2024-01-30T05:26:39;11.2;64.9
78696;SHT31;68030;51.980;5.646;2024-01-30T05:29:08;11.3;64.8
78696;SHT31;68030;51.980;5.646;2024-01-30T05:31:36;11.3;64.9
78696;SHT31;68030;51.980;5.646;2024-01-30T05:34:07;11.3;64.8
78696;SHT31;68030;51.980;5.646;2024-01-30T05:36:36;11.3;64.8
78696;SHT31;68030;51.980;5.646;2024-01-30T05:39:04;11.3;64.8
78696;SHT31;68030;51.980;5.646;2024-01-30T05:41:34;11.3;65.0
78696;SHT31;68030;51.980;5.646;2024-01-30T05:44:02;11.3;65.0
78696;SHT31;68030;51.980;5.646;2024-01-30T05:46:31;11.4;64.8
78696;SHT31;68030;51.980;5.646;2024-01-30T05:48:59;11.4;64.7
78696;SHT31;68030;51.980;5.646;2024-01-30T05:51:28;11.4;64.9
78696;SHT31;68030;51.980;5.646;2024-01-30T05:53:56;11.4;64.8
78696;SHT31;68030;51.980;5.646;2024-01-30T05:56:25;11.4;64.8
78696;SHT31;68030;51.980;5.646;2024-01-30T05:58:55;11.4;65.0
78696;SHT31;68030;51.980;5.646;2024-01-30T06:01:23;11.4;64.9
78696;SHT31;68030;51.980;5.646;2024-01-30T06:03:52;11.5;64.9
78696;SHT31;68030;51.980;5.646;2024-01-30T06:06:20;11.5;64.8
78696;SHT31;68030;51.980;5.646;2024-01-30T06:08:49;11.5;64.7
78696;SHT31;68030;51.980;5.646;2024-01-30T06:11:18;11.5;64.7
78696;SHT31;68030;51.980;5.646;2024-01-30T06:13:46;11.5;64.8
78696;SHT31;68030;51.980;5.646;2024-01-30T06:16:15;11.6;64.8
78696;SHT31;68030;51.980;5.646;2024-01-30T06:18:43;11.6;64.8
78696;SHT31;68030;51.980;5.646;2024-01-30T06:21:14;11.6;64.8
78696;SHT31;68030;51.980;5.646;2024-01-30T06:23:42;11.6;64.7
78696;SHT31;68030;51.980;5.646;2024-01-30T06:26:10;11.7;64.6
78696;SHT31;68030;51.980;5.646;2024-01-30T06:28:39;11.7;64.6
78696;SHT31;68030;51.980;5.646;2024-01-30T06:31:08;11.7;64.6
78696;SHT31;68030;51.980;5.646;2024-01-30T06:33:36;11.7;64.6
78696;SHT31;68030;51.980;5.646;2024-01-30T06:36:06;11.8;64.4
78696;SHT31;68030;51.980;5.646;2024-01-30T06:38:34;11.8;64.4
78696;SHT31;68030;51.980;5.646;2024-01-30T06:41:03;11.8;64.3
78696;SHT31;68030;51.980;5.646;2024-01-30T06:43:34;11.8;64.2
78696;SHT31;68030;51.980;5.646;2024-01-30T06:46:03;11.8;64.2
78696;SHT31;68030;51.980;5.646;2024-01-30T06:48:31;11.9;64.2
78696;SHT31;68030;51.980;5.646;2024-01-30T06:51:00;11.9;64.3
78696;SHT31;68030;51.980;5.646;2024-01-30T06:53:28;11.9;64.3
78696;SHT31;68030;51.980;5.646;2024-01-30T06:55:57;11.9;64.3
78696;SHT31;68030;51.980;5.646;2024-01-30T06:58:26;11.9;64.2
78696;SHT31;68030;51.980;5.646;2024-01-30T07:00:55;11.9;64.1
78696;SHT31;68030;51.980;5.646;2024-01-30T07:03:26;12.0;64.2
78696;SHT31;68030;51.980;5.646;2024-01-30T07:05:54;12.0;64.2
78696;SHT31;68030;51.980;5.646;2024-01-30T07:08:23;12.0;64.2
78696;SHT31;68030;51.980;5.646;2024-01-30T07:10:52;12.0;64.1
78696;SHT31;68030;51.980;5.646;2024-01-30T07:13:21;12.0;64.0
78696;SHT31;68030;51.980;5.646;2024-01-30T07:15:50;12.1;63.9
78696;SHT31;68030;51.980;5.646;2024-01-30T07:18:18;12.1;63.8
78696;SHT31;68030;51.980;5.646;2024-01-30T07:20:47;12.1;63.8
78696;SHT31;68030;51.980;5.646;2024-01-30T07:23:16;12.1;63.7
78696;SHT31;68030;51.980;5.646;2024-01-30T07:25:45;12.1;63.6
78696;SHT31;68030;51.980;5.646;2024-01-30T07:28:15;12.1;63.8
78696;SHT31;68030;51.980;5.646;2024-01-30T07:30:44;12.1;63.9
78696;SHT31;68030;51.980;5.646;2024-01-30T07:33:13;12.1;63.9
78696;SHT31;68030;51.980;5.646;2024-01-30T07:35:42;12.1;63.8
78696;SHT31;68030;51.980;5.646;2024-01-30T07:38:11;12.1;63.8
78696;SHT31;68030;51.980;5.646;2024-01-30T07:40:41;12.2;64.1
78696;SHT31;68030;51.980;5.646;2024-01-30T07:43:10;12.2;64.1
78696;SHT31;68030;51.980;5.646;2024-01-30T07:45:38;12.2;64.1
78696;SHT31;68030;51.980;5.646;2024-01-30T07:48:08;12.2;64.0
78696;SHT31;68030;51.980;5.646;2024-01-30T07:50:36;12.2;64.1
78696;SHT31;68030;51.980;5.646;2024-01-30T07:53:05;12.2;64.1
78696;SHT31;68030;51.980;5.646;2024-01-30T07:55:34;12.2;64.4
78696;SHT31;68030;51.980;5.646;2024-01-30T07:58:03;12.3;64.4
78696;SHT31;68030;51.980;5.646;2024-01-30T08:00:32;12.3;64.4
78696;SHT31;68030;51.980;5.646;2024-01-30T08:03:00;12.3;64.4
78696;SHT31;68030;51.980;5.646;2024-01-30T08:05:29;12.3;64.6
78696;SHT31;68030;51.980;5.646;2024-01-30T08:07:57;12.4;64.4
78696;SHT31;68030;51.980;5.646;2024-01-30T08:10:26;12.4;64.5
78696;SHT31;68030;51.980;5.646;2024-01-30T08:12:54;12.4;64.6
78696;SHT31;68030;51.980;5.646;2024-01-30T08:15:22;12.4;64.6
78696;SHT31;68030;51.980;5.646;2024-01-30T08:17:51;12.5;64.7
78696;SHT31;68030;51.980;5.646;2024-01-30T08:20:24;12.5;65.2
78696;SHT31;68030;51.980;5.646;2024-01-30T08:22:53;12.6;65.0
78696;SHT31;68030;51.980;5.646;2024-01-30T08:25:21;12.6;64.8
78696;SHT31;68030;51.980;5.646;2024-01-30T08:27:51;12.7;64.9
78696;SHT31;68030;51.980;5.646;2024-01-30T08:30:20;12.7;64.6
78696;SHT31;68030;51.980;5.646;2024-01-30T08:32:48;12.8;64.6
78696;SHT31;68030;51.980;5.646;2024-01-30T08:35:17;12.8;64.5
78696;SHT31;68030;51.980;5.646;2024-01-30T08:37:45;12.9;64.4
78696;SHT31;68030;51.980;5.646;2024-01-30T08:40:14;12.9;64.4
78696;SHT31;68030;51.980;5.646;2024-01-30T08:42:44;13.0;64.2
78696;SHT31;68030;51.980;5.646;2024-01-30T08:45:15;13.0;64.2
78696;SHT31;68030;51.980;5.646;2024-01-30T08:47:44;13.1;64.1
78696;SHT31;68030;51.980;5.646;2024-01-30T08:50:12;13.1;63.9
78696;SHT31;68030;51.980;5.646;2024-01-30T08:52:41;13.2;63.9
78696;SHT31;68030;51.980;5.646;2024-01-30T08:55:10;13.2;63.8
78696;SHT31;68030;51.980;5.646;2024-01-30T08:57:39;13.2;63.7
78696;SHT31;68030;51.980;5.646;2024-01-30T09:00:08;13.3;63.6
78696;SHT31;68030;51.980;5.646;2024-01-30T09:02:37;13.3;63.5
78696;SHT31;68030;51.980;5.646;2024-01-30T09:05:06;13.4;63.5
78696;SHT31;68030;51.980;5.646;2024-01-30T09:07:35;13.4;64.3
78696;SHT31;68030;51.980;5.646;2024-01-30T09:10:05;13.4;63.7
78696;SHT31;68030;51.980;5.646;2024-01-30T09:12:34;13.5;63.5
78696;SHT31;68030;51.980;5.646;2024-01-30T09:15:03;13.5;63.4
78696;SHT31;68030;51.980;5.646;2024-01-30T09:17:31;13.6;63.3
78696;SHT31;68030;51.980;5.646;2024-01-30T09:20:00;13.6;63.2
78696;SHT31;68030;51.980;5.646;2024-01-30T09:22:30;13.7;63.3
78696;SHT31;68030;51.980;5.646;2024-01-30T09:24:59;13.7;63.4
78696;SHT31;68030;51.980;5.646;2024-01-30T09:27:27;13.7;63.3
78696;SHT31;68030;51.980;5.646;2024-01-30T09:29:56;13.7;63.3
78696;SHT31;68030;51.980;5.646;2024-01-30T09:32:24;13.8;63.3
78696;SHT31;68030;51.980;5.646;2024-01-30T09:34:53;13.8;63.3
78696;SHT31;68030;51.980;5.646;2024-01-30T09:37:22;13.8;63.4
78696;SHT31;68030;51.980;5.646;2024-01-30T09:39:50;13.8;63.5
78696;SHT31;68030;51.980;5.646;2024-01-30T09:42:28;13.8;63.5
78696;SHT31;68030;51.980;5.646;2024-01-30T09:45:01;13.8;63.6
78696;SHT31;68030;51.980;5.646;2024-01-30T09:47:40;13.9;63.7
78696;SHT31;68030;51.980;5.646;2024-01-30T09:50:11;13.9;63.8
78696;SHT31;68030;51.980;5.646;2024-01-30T09:52:40;13.9;64.0
78696;SHT31;68030;51.980;5.646;2024-01-30T09:55:10;13.9;64.6
78696;SHT31;68030;51.980;5.646;2024-01-30T09:57:41;13.9;64.2
78696;SHT31;68030;51.980;5.646;2024-01-30T10:00:11;14.0;64.2
78696;SHT31;68030;51.980;5.646;2024-01-30T10:02:40;14.0;64.0
78696;SHT31;68030;51.980;5.646;2024-01-30T10:05:11;14.0;64.0
78696;SHT31;68030;51.980;5.646;2024-01-30T10:07:53;14.0;64.0
78696;SHT31;68030;51.980;5.646;2024-01-30T10:10:23;14.0;64.0
78696;SHT31;68030;51.980;5.646;2024-01-30T10:12:52;14.1;64.1
78696;SHT31;68030;51.980;5.646;2024-01-30T10:15:21;14.1;64.3
78696;SHT31;68030;51.980;5.646;2024-01-30T10:17:49;14.1;64.4
78696;SHT31;68030;51.980;5.646;2024-01-30T10:20:18;14.1;64.5
78696;SHT31;68030;51.980;5.646;2024-01-30T10:22:48;14.2;64.5
78696;SHT31;68030;51.980;5.646;2024-01-30T10:25:17;14.2;64.4
78696;SHT31;68030;51.980;5.646;2024-01-30T10:27:46;14.2;64.1
78696;SHT31;68030;51.980;5.646;2024-01-30T10:30:14;14.3;63.9
78696;SHT31;68030;51.980;5.646;2024-01-30T10:32:43;14.3;63.8
78696;SHT31;68030;51.980;5.646;2024-01-30T10:35:11;14.4;63.5
78696;SHT31;68030;51.980;5.646;2024-01-30T10:37:43;14.4;63.2
78696;SHT31;68030;51.980;5.646;2024-01-30T10:40:14;14.4;63.2
78696;SHT31;68030;51.980;5.646;2024-01-30T10:42:45;14.5;62.9
78696;SHT31;68030;51.980;5.646;2024-01-30T10:45:15;14.5;62.9
78696;SHT31;68030;51.980;5.646;2024-01-30T10:47:49;14.6;62.5
78696;SHT31;68030;51.980;5.646;2024-01-30T10:50:18;14.6;62.5
78696;SHT31;68030;51.980;5.646;2024-01-30T10:52:49;14.7;62.5
78696;SHT31;68030;51.980;5.646;2024-01-30T10:55:19;14.7;62.4
78696;SHT31;68030;51.980;5.646;2024-01-30T10:57:49;14.8;62.5
78696;SHT31;68030;51.980;5.646;2024-01-30T11:00:22;14.9;62.4
78696;SHT31;68030;51.980;5.646;2024-01-30T11:02:53;15.0;61.3
78696;SHT31;68030;51.980;5.646;2024-01-30T11:05:27;15.0;60.6
78696;SHT31;68030;51.980;5.646;2024-01-30T11:07:57;15.1;61.1
78696;SHT31;68030;51.980;5.646;2024-01-30T11:10:26;15.2;61.0
78696;SHT31;68030;51.980;5.646;2024-01-30T11:12:56;15.2;61.1
78696;SHT31;68030;51.980;5.646;2024-01-30T11:15:25;15.3;60.7
78696;SHT31;68030;51.980;5.646;2024-01-30T11:17:55;15.4;60.3
78696;SHT31;68030;51.980;5.646;2024-01-30T11:20:27;15.4;59.9
78696;SHT31;68030;51.980;5.646;2024-01-30T11:22:57;15.4;59.7
78696;SHT31;68030;51.980;5.646;2024-01-30T11:25:26;15.5;59.5
78696;SHT31;68030;51.980;5.646;2024-01-30T11:27:55;15.5;59.2
78696;SHT31;68030;51.980;5.646;2024-01-30T11:30:26;15.5;59.4
78696;SHT31;68030;51.980;5.646;2024-01-30T11:33:02;15.5;59.8
78696;SHT31;68030;51.980;5.646;2024-01-30T11:35:34;15.6;59.8
78696;SHT31;68030;51.980;5.646;2024-01-30T11:38:03;15.6;59.5
78696;SHT31;68030;51.980;5.646;2024-01-30T11:40:34;15.6;59.4
78696;SHT31;68030;51.980;5.646;2024-01-30T11:43:05;15.6;58.7
78696;SHT31;68030;51.980;5.646;2024-01-30T11:45:35;15.6;58.6
78696;SHT31;68030;51.980;5.646;2024-01-30T11:48:05;15.6;58.6
78696;SHT31;68030;51.980;5.646;2024-01-30T11:50:38;15.6;58.9
78696;SHT31;68030;51.980;5.646;2024-01-30T11:53:08;15.6;59.5
78696;SHT31;68030;51.980;5.646;2024-01-30T11:55:36;15.6;59.9
78696;SHT31;68030;51.980;5.646;2024-01-30T11:58:05;15.6;59.2
78696;SHT31;68030;51.980;5.646;2024-01-30T12:00:35;15.6;57.6
78696;SHT31;68030;51.980;5.646;2024-01-30T12:03:04;15.6;57.0
78696;SHT31;68030;51.980;5.646;2024-01-30T12:05:33;15.5;56.6
78696;SHT31;68030;51.980;5.646;2024-01-30T12:08:03;15.4;56.3
78696;SHT31;68030;51.980;5.646;2024-01-30T12:10:32;15.4;56.4
78696;SHT31;68030;51.980;5.646;2024-01-30T12:13:03;15.3;56.6
78696;SHT31;68030;51.980;5.646;2024-01-30T12:15:32;15.2;57.1
78696;SHT31;68030;51.980;5.646;2024-01-30T12:18:10;15.1;56.9
78696;SHT31;68030;51.980;5.646;2024-01-30T12:20:41;15.1;57.4
78696;SHT31;68030;51.980;5.646;2024-01-30T12:23:12;15.0;57.5
78696;SHT31;68030;51.980;5.646;2024-01-30T12:25:41;14.9;57.8
78696;SHT31;68030;51.980;5.646;2024-01-30T12:28:10;14.9;57.6
78696;SHT31;68030;51.980;5.646;2024-01-30T12:30:39;14.8;57.6
78696;SHT31;68030;51.980;5.646;2024-01-30T12:33:09;14.7;57.0
78696;SHT31;68030;51.980;5.646;2024-01-30T12:35:38;14.7;57.0
78696;SHT31;68030;51.980;5.646;2024-01-30T12:38:07;14.6;56.7
78696;SHT31;68030;51.980;5.646;2024-01-30T12:40:38;14.6;57.0
78696;SHT31;68030;51.980;5.646;2024-01-30T12:43:07;14.5;57.1
78696;SHT31;68030;51.980;5.646;2024-01-30T12:45:36;14.5;56.8
78696;SHT31;68030;51.980;5.646;2024-01-30T12:48:06;14.5;56.8
78696;SHT31;68030;51.980;5.646;2024-01-30T12:50:35;14.4;57.1
78696;SHT31;68030;51.980;5.646;2024-01-30T12:53:04;14.4;57.2
78696;SHT31;68030;51.980;5.646;2024-01-30T12:55:32;14.4;57.3
78696;SHT31;68030;51.980;5.646;2024-01-30T12:58:01;14.4;57.5
78696;SHT31;68030;51.980;5.646;2024-01-30T13:00:30;14.3;57.1
78696;SHT31;68030;51.980;5.646;2024-01-30T13:02:58;14.3;56.6
78696;SHT31;68030;51.980;5.646;2024-01-30T13:05:27;14.3;56.7
78696;SHT31;68030;51.980;5.646;2024-01-30T13:07:55;14.3;56.3
78696;SHT31;68030;51.980;5.646;2024-01-30T13:10:24;14.3;55.6
78696;SHT31;68030;51.980;5.646;2024-01-30T13:12:52;14.3;56.1
78696;SHT31;68030;51.980;5.646;2024-01-30T13:15:20;14.2;56.1
78696;SHT31;68030;51.980;5.646;2024-01-30T13:17:50;14.1;57.2
78696;SHT31;68030;51.980;5.646;2024-01-30T13:20:20;14.1;57.8
78696;SHT31;68030;51.980;5.646;2024-01-30T13:22:49;14.0;58.6
78696;SHT31;68030;51.980;5.646;2024-01-30T13:25:18;13.9;58.5
78696;SHT31;68030;51.980;5.646;2024-01-30T13:27:46;13.9;58.4
78696;SHT31;68030;51.980;5.646;2024-01-30T13:30:15;13.8;58.1
78696;SHT31;68030;51.980;5.646;2024-01-30T13:32:43;13.7;58.4
78696;SHT31;68030;51.980;5.646;2024-01-30T13:35:13;13.6;58.5
78696;SHT31;68030;51.980;5.646;2024-01-30T13:37:44;13.5;58.4
78696;SHT31;68030;51.980;5.646;2024-01-30T13:40:14;13.5;59.0
78696;SHT31;68030;51.980;5.646;2024-01-30T13:42:43;13.4;59.1
78696;SHT31;68030;51.980;5.646;2024-01-30T13:45:11;13.3;59.4
78696;SHT31;68030;51.980;5.646;2024-01-30T13:47:40;13.3;59.0
78696;SHT31;68030;51.980;5.646;2024-01-30T13:50:08;13.3;59.1
78696;SHT31;68030;51.980;5.646;2024-01-30T13:52:41;13.2;59.1
78696;SHT31;68030;51.980;5.646;2024-01-30T13:55:10;13.2;59.5
78696;SHT31;68030;51.980;5.646;2024-01-30T13:57:39;13.2;59.6
78696;SHT31;68030;51.980;5.646;2024-01-30T14:00:08;13.2;59.8
78696;SHT31;68030;51.980;5.646;2024-01-30T14:02:37;13.2;59.9
78696;SHT31;68030;51.980;5.646;2024-01-30T14:05:07;13.2;59.8
78696;SHT31;68030;51.980;5.646;2024-01-30T14:07:37;13.2;59.5
78696;SHT31;68030;51.980;5.646;2024-01-30T14:10:09;13.2;59.3
78696;SHT31;68030;51.980;5.646;2024-01-30T14:12:39;13.2;59.3
78696;SHT31;68030;51.980;5.646;2024-01-30T14:15:10;13.2;58.9
78696;SHT31;68030;51.980;5.646;2024-01-30T14:17:39;13.2;59.6
78696;SHT31;68030;51.980;5.646;2024-01-30T14:20:08;13.2;59.3
78696;SHT31;68030;51.980;5.646;2024-01-30T14:22:37;13.2;59.4
78696;SHT31;68030;51.980;5.646;2024-01-30T14:25:07;13.2;59.8
78696;SHT31;68030;51.980;5.646;2024-01-30T14:27:36;13.2;60.0
78696;SHT31;68030;51.980;5.646;2024-01-30T14:30:06;13.2;60.0
78696;SHT31;68030;51.980;5.646;2024-01-30T14:32:35;13.2;60.2
78696;SHT31;68030;51.980;5.646;2024-01-30T14:35:05;13.2;60.2
78696;SHT31;68030;51.980;5.646;2024-01-30T14:37:35;13.2;60.2
78696;SHT31;68030;51.980;5.646;2024-01-30T14:40:04;13.2;60.7
78696;SHT31;68030;51.980;5.646;2024-01-30T14:42:33;13.1;61.1
78696;SHT31;68030;51.980;5.646;2024-01-30T14:45:05;13.1;61.0
78696;SHT31;68030;51.980;5.646;2024-01-30T14:47:35;13.1;61.5
78696;SHT31;68030;51.980;5.646;2024-01-30T14:50:04;13.1;61.5
78696;SHT31;68030;51.980;5.646;2024-01-30T14:52:33;13.1;61.9
78696;SHT31;68030;51.980;5.646;2024-01-30T14:55:02;13.1;62.0
78696;SHT31;68030;51.980;5.646;2024-01-30T14:57:33;13.0;62.1
78696;SHT31;68030;51.980;5.646;2024-01-30T15:00:05;13.0;61.5
78696;SHT31;68030;51.980;5.646;2024-01-30T15:02:34;13.0;61.7
78696;SHT31;68030;51.980;5.646;2024-01-30T15:05:04;13.0;61.8
78696;SHT31;68030;51.980;5.646;2024-01-30T15:07:33;13.0;61.7
78696;SHT31;68030;51.980;5.646;2024-01-30T15:10:03;13.0;61.7
78696;SHT31;68030;51.980;5.646;2024-01-30T15:12:32;12.9;61.7
78696;SHT31;68030;51.980;5.646;2024-01-30T15:15:00;12.9;61.7
78696;SHT31;68030;51.980;5.646;2024-01-30T15:17:29;12.9;62.0
78696;SHT31;68030;51.980;5.646;2024-01-30T15:19:57;12.8;62.1
78696;SHT31;68030;51.980;5.646;2024-01-30T15:22:26;12.8;62.2
78696;SHT31;68030;51.980;5.646;2024-01-30T15:24:55;12.8;62.4
78696;SHT31;68030;51.980;5.646;2024-01-30T15:27:23;12.7;62.9
78696;SHT31;68030;51.980;5.646;2024-01-30T15:29:52;12.7;63.5
78696;SHT31;68030;51.980;5.646;2024-01-30T15:32:20;12.6;63.7
78696;SHT31;68030;51.980;5.646;2024-01-30T15:34:49;12.6;63.7
78696;SHT31;68030;51.980;5.646;2024-01-30T15:37:17;12.6;64.0
78696;SHT31;68030;51.980;5.646;2024-01-30T15:39:48;12.5;64.3
78696;SHT31;68030;51.980;5.646;2024-01-30T15:42:16;12.5;64.7
78696;SHT31;68030;51.980;5.646;2024-01-30T15:44:44;12.4;64.7
78696;SHT31;68030;51.980;5.646;2024-01-30T15:47:13;12.4;64.7
78696;SHT31;68030;51.980;5.646;2024-01-30T15:49:41;12.3;65.0
78696;SHT31;68030;51.980;5.646;2024-01-30T15:52:10;12.3;65.4
78696;SHT31;68030;51.980;5.646;2024-01-30T15:54:40;12.3;65.8
78696;SHT31;68030;51.980;5.646;2024-01-30T15:57:09;12.2;66.1
78696;SHT31;68030;51.980;5.646;2024-01-30T15:59:38;12.2;66.2
78696;SHT31;68030;51.980;5.646;2024-01-30T16:02:06;12.2;66.2
78696;SHT31;68030;51.980;5.646;2024-01-30T16:04:35;12.2;66.4
78696;SHT31;68030;51.980;5.646;2024-01-30T16:07:03;12.2;66.3
78696;SHT31;68030;51.980;5.646;2024-01-30T16:09:32;12.2;66.4
78696;SHT31;68030;51.980;5.646;2024-01-30T16:12:00;12.1;66.3
78696;SHT31;68030;51.980;5.646;2024-01-30T16:14:29;12.1;66.7